Time;durP1;ratioP1;P1;durP2;ratioP2;P2;SDS_P1;SDS_P2;PMS_P1;PMS_P2;Temp;Humidity;BMP_temperature;BMP_pressure;BME280_temperature;BME280_humidity;BME280_pressure;Samples;Min_cycle;Max_cycle;Signal;HPM_P1;HPM_P2
2024/01/05 00:00:35;;;;;;;2.62;0.70;;;;;;;9.02;81.72;99712.78;5609816;31;34066;-70
2024/01/05 00:03:39;;;;;;;2.10;0.68;;;;;;;9.04;81.98;99725.84;5609840;31;34121;-70
2024/01/05 00:06:42;;;;;;;2.17;0.62;;;;;;;9.02;82.35;99726.03;5610193;31;34137;-69
2024/01/05 00:09:46;;;;;;;3.58;0.70;;;;;;;9.07;82.42;99734.25;5609782;31;34893;-70
2024/01/05 00:12:48;;;;;;;2.97;0.65;;;;;;;8.89;84.12;99736.34;5609879;31;33939;-70
2024/01/05 00:15:52;;;;;;;1.83;0.70;;;;;;;8.88;83.93;99732.03;5609675;31;34010;-70
2024/01/05 00:18:55;;;;;;;2.15;0.73;;;;;;;8.89;84.18;99727.59;5609816;31;35046;-70
2024/01/05 00:21:58;;;;;;;2.00;0.60;;;;;;;8.85;84.62;99752.72;5609889;31;33954;-71
2024/01/05 00:25:03;;;;;;;3.00;0.70;;;;;;;8.91;84.23;99742.28;5608979;31;34348;-69
2024/01/05 00:28:06;;;;;;;3.00;0.75;;;;;;;8.81;85.37;99762.00;5609576;31;34061;-70
2024/01/05 00:31:10;;;;;;;1.60;0.70;;;;;;;8.75;85.54;99766.16;5608774;31;34148;-70
2024/01/05 00:34:14;;;;;;;2.12;0.57;;;;;;;8.79;85.88;99767.47;5609528;31;35084;-70
2024/01/05 00:37:17;;;;;;;4.75;1.08;;;;;;;8.86;84.77;99759.69;5608791;31;34209;-70
2024/01/05 00:40:20;;;;;;;2.87;1.08;;;;;;;8.73;85.41;99760.22;5609324;31;35061;-70
2024/01/05 00:43:23;;;;;;;2.12;0.60;;;;;;;8.72;85.05;99763.84;5609568;31;35105;-70
2024/01/05 00:46:26;;;;;;;1.42;0.60;;;;;;;8.68;86.28;99751.97;5609458;31;33994;-70
2024/01/05 00:49:29;;;;;;;3.05;0.93;;;;;;;8.61;86.34;99753.66;5609861;31;33986;-70
2024/01/05 00:52:32;;;;;;;4.00;0.80;;;;;;;8.62;86.42;99763.22;5609459;31;34349;-71
2024/01/05 00:55:35;;;;;;;3.15;0.70;;;;;;;8.65;86.04;99758.44;5609282;31;34114;-70
2024/01/05 00:58:38;;;;;;;4.05;1.00;;;;;;;8.62;86.33;99763.22;5608660;31;34111;-70
2024/01/05 01:01:41;;;;;;;3.55;0.98;;;;;;;8.62;85.96;99756.09;5609372;31;33951;-70
2024/01/05 01:04:44;;;;;;;2.05;0.60;;;;;;;8.58;86.52;99746.03;5609280;31;34129;-70
2024/01/05 01:07:47;;;;;;;3.12;0.95;;;;;;;8.56;86.22;99746.22;5609188;31;34076;-68
2024/01/05 01:10:50;;;;;;;3.33;0.88;;;;;;;8.47;86.95;99749.06;5609068;31;34353;-69
2024/01/05 01:13:53;;;;;;;4.32;0.95;;;;;;;8.50;86.67;99756.66;5609508;31;34666;-68
2024/01/05 01:16:56;;;;;;;2.92;0.80;;;;;;;8.56;86.04;99754.16;5609338;31;34095;-69
2024/01/05 01:19:59;;;;;;;3.22;0.98;;;;;;;8.54;85.90;99752.66;5609167;31;34786;-68
2024/01/05 01:23:02;;;;;;;1.85;0.80;;;;;;;8.52;86.63;99744.91;5609173;31;35234;-69
2024/01/05 01:26:05;;;;;;;3.87;0.98;;;;;;;8.56;86.23;99750.69;5609089;31;34036;-69
2024/01/05 01:29:08;;;;;;;3.95;0.80;;;;;;;8.54;86.75;99745.56;5609079;31;34111;-69
2024/01/05 01:32:11;;;;;;;2.53;0.90;;;;;;;8.65;85.90;99750.50;5609051;31;34003;-68
2024/01/05 01:35:14;;;;;;;3.67;0.82;;;;;;;8.66;85.40;99731.00;5609027;31;34271;-69
2024/01/05 01:38:17;;;;;;;3.15;0.80;;;;;;;8.64;86.20;99734.78;5609131;31;34121;-69
2024/01/05 01:41:20;;;;;;;3.62;0.82;;;;;;;8.58;86.51;99736.28;5608842;31;34341;-69
2024/01/05 01:44:23;;;;;;;4.32;0.80;;;;;;;8.57;86.43;99731.16;5608955;31;34530;-70
2024/01/05 01:47:26;;;;;;;3.58;1.00;;;;;;;8.50;87.50;99725.75;5609004;31;34251;-68
2024/01/05 01:50:29;;;;;;;3.65;0.80;;;;;;;8.50;87.69;99732.84;5609261;31;34130;-68
2024/01/05 01:53:32;;;;;;;3.08;0.77;;;;;;;8.34;88.94;99744.28;5608053;31;34809;-69
2024/01/05 01:56:36;;;;;;;4.18;1.05;;;;;;;8.25;90.40;99737.34;5608750;31;34778;-69
2024/01/05 01:59:39;;;;;;;3.10;0.70;;;;;;;8.11;91.81;99738.88;5609121;31;34137;-69
2024/01/05 02:02:42;;;;;;;2.92;0.80;;;;;;;8.02;93.21;99721.38;5608802;31;34776;-69
2024/01/05 02:05:47;;;;;;;4.43;0.90;;;;;;;7.89;95.52;99730.81;5608000;31;34125;-69
2024/01/05 02:08:51;;;;;;;3.08;0.82;;;;;;;7.82;96.87;99735.91;5608081;31;34198;-69
2024/01/05 02:11:54;;;;;;;4.47;0.80;;;;;;;7.84;96.74;99733.94;5608444;31;34238;-69
2024/01/05 02:14:57;;;;;;;3.05;0.90;;;;;;;7.91;96.84;99739.38;5607830;31;34630;-69
2024/01/05 02:18:09;;;;;;;2.30;0.70;;;;;;;7.91;96.84;99732.28;5608616;31;34003;-69
2024/01/05 02:21:14;;;;;;;3.22;0.90;;;;;;;7.89;98.52;99722.88;5607354;31;34052;-69
2024/01/05 02:24:17;;;;;;;3.12;1.00;;;;;;;7.89;98.57;99738.72;5608592;31;34228;-70
2024/01/05 02:27:19;;;;;;;4.90;0.82;;;;;;;7.84;99.59;99740.03;5608669;31;34068;-70
2024/01/05 02:30:23;;;;;;;3.60;0.95;;;;;;;7.85;100.00;99748.78;5608362;31;33962;-70
2024/01/05 02:33:26;;;;;;;4.53;1.20;;;;;;;7.62;100.00;99748.63;5608471;31;35008;-69
2024/01/05 02:36:29;;;;;;;3.03;1.00;;;;;;;7.67;100.00;99753.41;5608427;31;35425;-70
2024/01/05 02:39:31;;;;;;;4.37;1.00;;;;;;;7.54;100.00;99746.00;5608502;31;34738;-70
2024/01/05 02:42:35;;;;;;;4.85;1.15;;;;;;;7.53;100.00;99752.25;5608187;31;35257;-69
2024/01/05 02:45:37;;;;;;;4.37;1.10;;;;;;;7.40;100.00;99750.09;5608405;31;34133;-70
2024/01/05 02:48:40;;;;;;;3.53;1.15;;;;;;;7.28;100.00;99753.19;5608202;31;34308;-69
2024/01/05 02:51:44;;;;;;;4.05;1.05;;;;;;;7.35;100.00;99749.75;5608274;31;34030;-70
2024/01/05 02:54:47;;;;;;;3.90;1.20;;;;;;;7.27;100.00;99749.72;5607738;31;34959;-70
2024/01/05 02:57:50;;;;;;;2.87;1.00;;;;;;;7.11;100.00;99738.31;5608235;31;33931;-69
2024/01/05 03:00:53;;;;;;;3.67;0.98;;;;;;;7.22;100.00;99745.91;5608222;31;33982;-69
2024/01/05 03:04:00;;;;;;;3.45;1.10;;;;;;;7.25;100.00;99735.88;5608014;31;34201;-69
2024/01/05 03:07:04;;;;;;;3.10;1.05;;;;;;;7.17;100.00;99732.38;5607919;31;34800;-70
2024/01/05 03:10:07;;;;;;;4.10;0.90;;;;;;;7.19;100.00;99733.06;5607977;31;34230;-69
2024/01/05 03:13:10;;;;;;;3.65;1.02;;;;;;;7.19;100.00;99735.69;5607822;31;34329;-70
2024/01/05 03:16:13;;;;;;;5.28;1.05;;;;;;;7.19;100.00;99730.41;5607848;31;34109;-70
2024/01/05 03:19:16;;;;;;;3.78;1.30;;;;;;;7.30;100.00;99722.22;5607829;31;35104;-70
2024/01/05 03:22:19;;;;;;;3.58;1.00;;;;;;;7.32;100.00;99704.37;5607667;31;34038;-70
2024/01/05 03:25:22;;;;;;;3.05;0.88;;;;;;;7.36;100.00;99717.09;5608074;31;34013;-70
2024/01/05 03:28:24;;;;;;;6.97;1.30;;;;;;;7.30;100.00;99714.28;5607603;31;34192;-69
2024/01/05 03:31:28;;;;;;;3.85;1.08;;;;;;;7.25;100.00;99708.69;5607884;31;34997;-70
2024/01/05 03:34:30;;;;;;;3.37;1.00;;;;;;;7.11;100.00;99709.31;5609467;31;34106;-70
2024/01/05 03:37:33;;;;;;;3.42;1.12;;;;;;;7.00;100.00;99694.63;5610124;31;34761;-70
2024/01/05 03:40:36;;;;;;;4.15;0.90;;;;;;;6.84;100.00;99699.84;5610104;31;34132;-70
2024/01/05 03:43:39;;;;;;;6.00;1.12;;;;;;;6.72;100.00;99704.59;5610037;31;34973;-69
2024/01/05 03:46:42;;;;;;;2.95;0.95;;;;;;;6.63;100.00;99715.25;5610133;31;35084;-69
2024/01/05 03:49:45;;;;;;;3.25;1.10;;;;;;;6.66;100.00;99730.75;5610047;31;34141;-69
2024/01/05 03:52:48;;;;;;;2.53;0.90;;;;;;;6.51;100.00;99741.06;5610324;31;34101;-69
2024/01/05 03:55:51;;;;;;;3.28;1.00;;;;;;;6.26;100.00;99747.16;5609828;31;34254;-69
2024/01/05 03:58:55;;;;;;;5.60;1.65;;;;;;;6.26;100.00;99753.28;5609864;31;34714;-69
2024/01/05 04:01:58;;;;;;;4.85;1.00;;;;;;;6.02;100.00;99767.09;5609447;31;34205;-70
2024/01/05 04:05:02;;;;;;;3.53;1.00;;;;;;;5.95;100.00;99766.09;5609936;31;33979;-69
2024/01/05 04:08:05;;;;;;;4.85;1.00;;;;;;;5.88;100.00;99767.66;5609775;31;34134;-69
2024/01/05 04:11:08;;;;;;;2.40;0.90;;;;;;;5.62;100.00;99756.22;5609845;31;34017;-69
2024/01/05 04:14:11;;;;;;;4.37;1.10;;;;;;;5.44;100.00;99745.69;5609629;31;34268;-70
2024/01/05 04:17:14;;;;;;;7.70;1.25;;;;;;;5.28;100.00;99750.00;5609486;31;34175;-69
2024/01/05 04:20:17;;;;;;;5.40;1.20;;;;;;;5.16;100.00;99758.09;5609850;31;34997;-70
2024/01/05 04:23:20;;;;;;;6.37;1.27;;;;;;;5.08;100.00;99755.34;5609715;31;33979;-69
2024/01/05 04:26:23;;;;;;;5.37;1.12;;;;;;;4.87;100.00;99756.59;5609611;31;34069;-70
2024/01/05 04:29:26;;;;;;;4.15;1.20;;;;;;;4.74;100.00;99765.63;5608731;31;33983;-70
2024/01/05 04:32:29;;;;;;;4.65;1.10;;;;;;;4.64;100.00;99770.13;5609649;31;34736;-70
2024/01/05 04:35:32;;;;;;;5.60;1.45;;;;;;;4.58;100.00;99767.25;5608781;31;34026;-70
2024/01/05 04:38:35;;;;;;;5.00;1.40;;;;;;;4.65;100.00;99763.03;5609612;31;34135;-70
2024/01/05 04:41:38;;;;;;;8.13;1.30;;;;;;;4.65;100.00;99769.12;5609472;31;34955;-70
2024/01/05 04:44:41;;;;;;;8.05;1.05;;;;;;;4.92;100.00;99770.97;5609526;31;34819;-70
2024/01/05 04:47:46;;;;;;;4.85;1.30;;;;;;;4.88;100.00;99771.41;5609469;31;34407;-70
2024/01/05 04:50:49;;;;;;;7.75;1.60;;;;;;;4.92;100.00;99775.38;5609026;31;34714;-70
2024/01/05 04:53:52;;;;;;;6.57;1.45;;;;;;;4.87;100.00;99775.81;5609491;31;35084;-70
2024/01/05 04:56:55;;;;;;;6.12;1.55;;;;;;;4.76;100.00;99784.72;5609163;31;34925;-70
2024/01/05 04:59:58;;;;;;;4.70;1.10;;;;;;;4.86;100.00;99794.34;5609345;31;34215;-70
2024/01/05 05:03:00;;;;;;;4.68;1.20;;;;;;;5.12;100.00;99793.53;5609344;31;34702;-70
2024/01/05 05:06:04;;;;;;;5.20;1.12;;;;;;;5.03;100.00;99794.44;5609401;31;33991;-70
2024/01/05 05:09:08;;;;;;;5.70;1.35;;;;;;;5.04;100.00;99819.72;5609390;31;34012;-70
2024/01/05 05:12:12;;;;;;;4.28;1.20;;;;;;;4.91;100.00;99821.88;5608596;31;33559;-69
2024/01/05 05:15:14;;;;;;;5.30;1.42;;;;;;;4.82;100.00;99809.59;5609178;31;34187;-70
2024/01/05 05:18:17;;;;;;;4.53;1.27;;;;;;;4.78;100.00;99803.81;5608212;31;34760;-69
2024/01/05 05:21:22;;;;;;;5.57;1.30;;;;;;;4.77;100.00;99796.06;5609017;31;34137;-70
2024/01/05 05:24:25;;;;;;;7.68;1.33;;;;;;;4.69;100.00;99801.22;5609191;31;34042;-70
2024/01/05 05:27:29;;;;;;;6.50;1.55;;;;;;;4.66;100.00;99804.13;5609564;31;34018;-69
2024/01/05 05:30:32;;;;;;;6.93;1.30;;;;;;;4.95;100.00;99801.38;5608980;31;33999;-70
2024/01/05 05:33:35;;;;;;;4.68;1.58;;;;;;;5.19;100.00;99809.53;5608332;31;34081;-71
2024/01/05 05:36:38;;;;;;;6.12;1.35;;;;;;;5.11;100.00;99806.81;5609085;31;35549;-69
2024/01/05 05:39:43;;;;;;;5.10;1.20;;;;;;;5.43;100.00;99799.28;5608255;31;35075;-70
2024/01/05 05:42:47;;;;;;;5.00;1.60;;;;;;;5.46;100.00;99812.16;5609140;31;34005;-70
2024/01/05 05:45:50;;;;;;;7.28;1.23;;;;;;;5.57;100.00;99811.09;5608815;31;34341;-70
2024/01/05 05:48:53;;;;;;;2.53;1.23;;;;;;;5.60;100.00;99810.81;5608858;31;34780;-70
2024/01/05 05:51:56;;;;;;;6.22;1.30;;;;;;;5.63;100.00;99828.91;5608891;31;34403;-70
2024/01/05 05:54:59;;;;;;;5.95;1.35;;;;;;;5.81;100.00;99826.31;5607938;31;34658;-70
2024/01/05 05:58:03;;;;;;;5.65;1.35;;;;;;;5.76;100.00;99825.94;5608851;31;34100;-70
2024/01/05 06:01:09;;;;;;;5.47;1.35;;;;;;;5.62;100.00;99841.25;5608733;31;34027;-71
2024/01/05 06:04:13;;;;;;;3.50;1.15;;;;;;;5.58;100.00;99839.88;5609191;31;35035;-70
2024/01/05 06:07:17;;;;;;;4.30;1.23;;;;;;;5.73;100.00;99850.72;5609130;31;34332;-70
2024/01/05 06:10:20;;;;;;;4.55;1.33;;;;;;;5.92;100.00;99857.69;5608093;31;34003;-70
2024/01/05 06:13:22;;;;;;;4.05;1.10;;;;;;;6.06;100.00;99852.72;5608708;31;34099;-70
2024/01/05 06:16:26;;;;;;;5.90;1.10;;;;;;;6.20;100.00;99858.41;5608547;31;34356;-69
2024/01/05 06:19:28;;;;;;;6.28;1.42;;;;;;;6.25;100.00;99862.25;5608594;31;34692;-71
2024/01/05 06:22:32;;;;;;;2.87;1.00;;;;;;;6.29;100.00;99873.31;5608579;31;34022;-71
2024/01/05 06:25:35;;;;;;;7.45;1.50;;;;;;;6.26;100.00;99869.16;5607814;31;34024;-70
2024/01/05 06:28:38;;;;;;;6.72;1.42;;;;;;;6.28;100.00;99869.03;5607969;31;35278;-69
2024/01/05 06:31:41;;;;;;;4.57;1.20;;;;;;;6.26;100.00;99868.34;5608747;31;34054;-69
2024/01/05 06:34:44;;;;;;;6.20;1.45;;;;;;;6.26;100.00;99874.44;5608787;31;34241;-69
2024/01/05 06:37:47;;;;;;;5.68;1.30;;;;;;;6.26;100.00;99877.06;5608197;31;34771;-70
2024/01/05 06:40:50;;;;;;;8.23;1.40;;;;;;;6.29;100.00;99873.31;5608434;31;34566;-70
2024/01/05 06:43:53;;;;;;;6.20;1.30;;;;;;;6.21;100.00;99876.69;5607327;31;34104;-69
2024/01/05 06:46:56;;;;;;;11.23;2.30;;;;;;;6.02;100.00;99877.69;5608066;31;34546;-70
2024/01/05 06:49:59;;;;;;;9.13;3.00;;;;;;;5.75;100.00;99875.09;5608085;31;34073;-70
2024/01/05 06:53:03;;;;;;;10.13;2.90;;;;;;;5.51;100.00;99873.03;5607974;31;34049;-70
2024/01/05 06:56:06;;;;;;;10.60;3.97;;;;;;;5.42;100.00;99863.37;5607837;31;35023;-70
2024/01/05 06:59:09;;;;;;;13.27;3.97;;;;;;;5.34;100.00;99844.06;5607919;31;35146;-71
2024/01/05 07:02:12;;;;;;;16.10;4.15;;;;;;;5.25;100.00;99845.78;5607315;31;34184;-71
2024/01/05 07:05:15;;;;;;;11.85;3.85;;;;;;;5.17;100.00;99848.31;5608028;31;34801;-71
2024/01/05 07:08:18;;;;;;;12.32;3.62;;;;;;;5.09;100.00;99851.66;5607205;31;34354;-70
2024/01/05 07:11:22;;;;;;;18.70;4.28;;;;;;;5.01;100.00;99853.38;5607841;31;34988;-70
2024/01/05 07:14:28;;;;;;;18.65;4.28;;;;;;;4.95;100.00;99848.69;5607036;31;34073;-69
2024/01/05 07:17:31;;;;;;;13.00;3.97;;;;;;;4.86;100.00;99846.91;5607281;31;34341;-69
2024/01/05 07:20:34;;;;;;;15.60;4.30;;;;;;;4.79;100.00;99844.84;5607829;31;34650;-70
2024/01/05 07:23:37;;;;;;;16.02;4.25;;;;;;;4.76;100.00;99842.53;5607667;31;33080;-70
2024/01/05 07:26:42;;;;;;;15.57;4.15;;;;;;;4.73;100.00;99842.81;5607738;31;34215;-70
2024/01/05 07:29:45;;;;;;;18.87;4.43;;;;;;;4.66;100.00;99836.47;5607332;31;34135;-70
2024/01/05 07:32:48;;;;;;;18.25;4.53;;;;;;;4.65;100.00;99836.62;5607468;31;34886;-70
2024/01/05 07:35:51;;;;;;;14.93;4.78;;;;;;;4.71;100.00;99825.53;5607648;31;34209;-69
2024/01/05 07:38:58;;;;;;;19.27;4.57;;;;;;;4.70;100.00;99839.63;5607260;31;34030;-70
2024/01/05 07:42:02;;;;;;;13.62;4.80;;;;;;;4.71;100.00;99828.16;5607254;31;33991;-70
2024/01/05 07:45:06;;;;;;;15.05;4.30;;;;;;;4.74;100.00;99836.56;5607323;31;34022;-70
2024/01/05 07:48:09;;;;;;;17.33;4.75;;;;;;;4.80;100.00;99824.66;5606472;31;35101;-70
2024/01/05 07:51:13;;;;;;;17.20;4.87;;;;;;;4.85;100.00;99824.22;5607207;31;34740;-70
2024/01/05 07:54:16;;;;;;;18.00;4.85;;;;;;;4.83;100.00;99821.78;5607245;31;33969;-70
2024/01/05 07:57:19;;;;;;;15.10;4.53;;;;;;;4.90;100.00;99822.00;5606848;31;34752;-70
2024/01/05 08:00:22;;;;;;;19.35;5.07;;;;;;;5.02;100.00;99818.22;5606748;31;34801;-70
2024/01/05 08:03:25;;;;;;;16.60;3.75;;;;;;;5.10;100.00;99820.94;5606960;31;34053;-70
2024/01/05 08:06:28;;;;;;;22.77;4.40;;;;;;;5.65;100.00;99830.44;5606765;31;34957;-71
2024/01/05 08:09:32;;;;;;;13.10;4.20;;;;;;;5.60;100.00;99823.97;5606805;31;34769;-71
2024/01/05 08:12:36;;;;;;;18.98;5.37;;;;;;;5.61;100.00;99834.34;5606764;31;34093;-70
2024/01/05 08:15:40;;;;;;;18.77;5.53;;;;;;;5.82;100.00;99836.66;5606613;31;35036;-70
2024/01/05 08:18:43;;;;;;;18.98;6.80;;;;;;;5.89;100.00;99844.81;5607771;31;34913;-69
2024/01/05 08:21:46;;;;;;;20.58;6.87;;;;;;;5.84;100.00;99854.94;5609659;31;34048;-70
2024/01/05 08:24:49;;;;;;;20.98;7.10;;;;;;;5.83;100.00;99859.38;5609975;31;34754;-70
2024/01/05 08:27:53;;;;;;;14.98;5.80;;;;;;;5.83;100.00;99856.75;5609473;31;34006;-70
2024/01/05 08:30:56;;;;;;;14.30;6.03;;;;;;;5.90;100.00;99849.13;5608697;31;34337;-70
2024/01/05 08:34:00;;;;;;;12.98;5.65;;;;;;;5.96;100.00;99862.50;5609521;31;34034;-70
2024/01/05 08:37:03;;;;;;;11.48;5.97;;;;;;;6.02;100.00;99866.31;5609647;31;34767;-70
2024/01/05 08:40:07;;;;;;;18.98;6.60;;;;;;;6.09;100.00;99872.66;5609585;31;34099;-70
2024/01/05 08:43:10;;;;;;;17.27;6.03;;;;;;;6.18;100.00;99869.09;5609461;31;34786;-70
2024/01/05 08:46:14;;;;;;;11.43;5.80;;;;;;;6.12;100.00;99853.91;5609379;31;34070;-70
2024/01/05 08:49:16;;;;;;;11.88;5.70;;;;;;;6.13;100.00;99866.09;5609254;31;34275;-70
2024/01/05 08:52:20;;;;;;;12.52;4.82;;;;;;;6.24;100.00;99870.31;5609479;31;34923;-70
2024/01/05 08:55:23;;;;;;;10.18;5.20;;;;;;;6.26;100.00;99881.50;5609330;31;33984;-70
2024/01/05 08:58:27;;;;;;;12.35;4.80;;;;;;;6.39;100.00;99881.97;5609130;31;34255;-70
2024/01/05 09:01:32;;;;;;;12.85;3.97;;;;;;;6.57;100.00;99889.81;5608787;31;34023;-70
2024/01/05 09:04:37;;;;;;;10.45;4.37;;;;;;;6.71;100.00;99886.63;5609511;31;33937;-70
2024/01/05 09:07:39;;;;;;;6.65;3.58;;;;;;;6.83;100.00;99895.91;5608863;31;33993;-70
2024/01/05 09:10:42;;;;;;;9.90;3.70;;;;;;;6.99;100.00;99880.19;5608970;31;34080;-70
2024/01/05 09:13:45;;;;;;;8.32;3.45;;;;;;;7.09;100.00;99886.19;5608880;31;34150;-70
2024/01/05 09:16:48;;;;;;;10.23;3.83;;;;;;;7.19;100.00;99894.81;5609021;31;34097;-71
2024/01/05 09:19:51;;;;;;;9.30;3.95;;;;;;;7.21;100.00;99903.38;5608949;31;35238;-69
2024/01/05 09:22:54;;;;;;;10.93;4.18;;;;;;;7.28;100.00;99901.78;5608417;31;34727;-70
2024/01/05 09:25:58;;;;;;;10.20;4.30;;;;;;;7.31;100.00;99900.63;5608600;31;34118;-70
2024/01/05 09:29:01;;;;;;;11.02;4.50;;;;;;;7.29;100.00;99899.97;5607171;31;34017;-70
2024/01/05 09:32:04;;;;;;;9.63;4.65;;;;;;;7.30;100.00;99906.91;5608143;31;34014;-71
2024/01/05 09:35:08;;;;;;;10.73;4.93;;;;;;;7.26;100.00;99905.56;5609161;31;34061;-71
2024/01/05 09:38:11;;;;;;;13.93;4.80;;;;;;;7.18;100.00;99894.94;5608626;31;34073;-71
2024/01/05 09:41:15;;;;;;;10.35;5.00;;;;;;;7.18;100.00;99900.22;5608043;31;34797;-71
2024/01/05 09:44:17;;;;;;;10.00;5.35;;;;;;;7.18;100.00;99908.97;5608768;31;34147;-71
2024/01/05 09:47:23;;;;;;;15.07;5.37;;;;;;;7.22;100.00;99906.84;5608600;31;34163;-69
2024/01/05 09:50:26;;;;;;;11.40;5.22;;;;;;;7.28;100.00;99896.50;5608340;31;33780;-70
2024/01/05 09:53:30;;;;;;;13.05;5.60;;;;;;;7.36;100.00;99879.84;5608335;31;34921;-70
2024/01/05 09:56:33;;;;;;;12.50;5.93;;;;;;;7.40;100.00;99878.56;5607907;31;34233;-70
2024/01/05 09:59:38;;;;;;;12.55;6.15;;;;;;;7.37;100.00;99871.78;5608287;31;34670;-70
2024/01/05 10:02:50;;;;;;;13.90;5.85;;;;;;;7.39;100.00;99869.81;5608091;31;34571;-70
2024/01/05 10:05:53;;;;;;;15.38;5.80;;;;;;;7.43;100.00;99863.25;5607570;31;34143;-70
2024/01/05 10:08:58;;;;;;;13.25;6.05;;;;;;;7.47;100.00;99861.09;5608150;31;34226;-70
2024/01/05 10:12:11;;;;;;;12.40;5.93;;;;;;;7.78;100.00;99841.06;5607272;31;34118;-70
2024/01/05 10:15:14;;;;;;;15.95;5.70;;;;;;;7.84;100.00;99843.03;5607729;31;34084;-71
2024/01/05 10:18:18;;;;;;;10.65;5.10;;;;;;;8.09;100.00;99825.37;5607648;31;34033;-71
2024/01/05 10:21:25;;;;;;;13.65;5.10;;;;;;;8.10;100.00;99824.38;5607064;31;34311;-71
2024/01/05 10:24:29;;;;;;;10.45;5.15;;;;;;;8.21;100.00;99820.59;5607721;31;34808;-70
2024/01/05 10:27:32;;;;;;;13.40;5.65;;;;;;;8.39;100.00;99821.25;5607942;31;34128;-71
2024/01/05 10:30:36;;;;;;;12.32;5.07;;;;;;;8.37;100.00;99812.69;5607346;31;35454;-69
2024/01/05 10:33:48;;;;;;;10.88;5.12;;;;;;;8.46;100.00;99818.78;5607705;31;34035;-69
2024/01/05 10:37:02;;;;;;;13.35;5.05;;;;;;;8.60;100.00;99810.16;5607876;31;33993;-70
2024/01/05 10:40:06;;;;;;;8.40;4.25;;;;;;;8.66;100.00;99794.47;5608246;31;34223;-70
2024/01/05 10:43:15;;;;;;;11.43;4.40;;;;;;;8.64;100.00;99791.16;5609248;31;34409;-71
2024/01/05 10:46:20;;;;;;;10.52;4.50;;;;;;;8.76;100.00;99788.97;5607940;31;34830;-71
2024/01/05 10:49:30;;;;;;;9.10;4.05;;;;;;;8.90;100.00;99776.84;5607700;31;34162;-71
2024/01/05 10:52:34;;;;;;;8.18;3.65;;;;;;;8.93;100.00;99774.69;5609132;31;34252;-69
2024/01/05 10:55:40;;;;;;;10.07;3.33;;;;;;;8.95;100.00;99774.53;5607252;31;33732;-71
2024/01/05 10:58:43;;;;;;;6.25;3.40;;;;;;;9.05;99.74;99761.91;5607713;31;34033;-71
2024/01/05 11:01:49;;;;;;;8.20;3.62;;;;;;;9.13;100.00;99751.28;5608018;31;34041;-72
2024/01/05 11:05:00;;;;;;;7.75;3.08;;;;;;;9.14;98.57;99745.00;5607713;31;34003;-71
2024/01/05 11:08:04;;;;;;;7.65;3.40;;;;;;;9.24;99.23;99744.75;5607832;31;35158;-71
2024/01/05 11:11:29;;;;;;;7.15;3.20;;;;;;;9.21;98.33;99740.63;5607683;31;34214;-71
2024/01/05 11:14:51;;;;;;;9.23;3.00;;;;;;;9.47;97.11;99751.72;5606757;31;34127;-71
2024/01/05 11:18:14;;;;;;;8.77;3.20;;;;;;;9.60;95.17;99743.19;5606663;31;34012;-71
2024/01/05 11:21:25;;;;;;;9.73;2.92;;;;;;;9.66;95.68;99737.19;5607783;31;34850;-71
2024/01/05 11:24:29;;;;;;;9.48;2.20;;;;;;;9.79;93.92;99740.06;5607191;31;34282;-71
2024/01/05 11:27:34;;;;;;;5.62;1.98;;;;;;;9.82;91.45;99738.88;5606750;31;35454;-71
2024/01/05 11:30:41;;;;;;;5.47;2.20;;;;;;;9.80;89.63;99739.06;5593485;31;34056;-71
2024/01/05 11:33:49;;;;;;;7.72;2.50;;;;;;;9.85;89.71;99723.44;5607515;31;33549;-71
2024/01/05 11:36:52;;;;;;;5.65;1.98;;;;;;;9.89;88.25;99714.13;5606879;31;34588;-71
2024/01/05 11:39:57;;;;;;;5.87;2.00;;;;;;;9.98;89.92;99701.63;5607294;31;34103;-71
2024/01/05 11:43:33;;;;;;;6.37;2.00;;;;;;;9.87;88.73;99710.84;5607443;31;34073;-71
2024/01/05 11:46:52;;;;;;;5.37;1.75;;;;;;;10.06;88.45;99704.22;5607527;31;34311;-71
2024/01/05 11:49:55;;;;;;;5.35;1.77;;;;;;;10.13;87.77;99699.81;5607301;31;34116;-70
2024/01/05 11:53:19;;;;;;;5.37;2.08;;;;;;;10.13;88.36;99704.31;5607171;31;34713;-71
2024/01/05 11:56:25;;;;;;;7.68;2.10;;;;;;;10.24;86.80;99704.72;5609571;31;34844;-71
2024/01/05 11:59:28;;;;;;;5.35;2.03;;;;;;;10.33;85.80;99695.66;5609409;31;34037;-71
2024/01/05 12:02:30;;;;;;;4.75;2.05;;;;;;;10.39;85.61;99700.25;5608998;31;34016;-71
2024/01/05 12:05:34;;;;;;;4.22;1.92;;;;;;;10.52;84.43;99693.47;5609691;31;34683;-71
2024/01/05 12:08:38;;;;;;;5.80;2.45;;;;;;;10.53;85.29;99697.75;5608657;31;34318;-70
2024/01/05 12:11:41;;;;;;;5.43;2.20;;;;;;;10.58;84.86;99701.53;5609572;31;34024;-70
2024/01/05 12:14:44;;;;;;;6.32;2.70;;;;;;;10.46;85.68;99697.66;5609605;31;34176;-71
2024/01/05 12:17:49;;;;;;;6.07;2.40;;;;;;;10.45;85.00;99704.00;5572205;31;1191214;-70
2024/01/05 12:20:57;;;;;;;6.15;2.45;;;;;;;10.61;85.16;99697.66;5608673;31;34427;-73
2024/01/05 12:24:03;;;;;;;7.25;2.67;;;;;;;10.69;85.92;99703.72;5609472;31;34401;-72
2024/01/05 12:27:06;;;;;;;6.05;2.78;;;;;;;10.63;86.84;99703.63;5608529;31;34267;-71
2024/01/05 12:30:12;;;;;;;6.55;2.75;;;;;;;10.55;87.35;99699.25;5609814;31;33936;-72
2024/01/05 12:33:17;;;;;;;8.48;3.40;;;;;;;10.40;90.35;99696.59;5609593;31;34028;-70
2024/01/05 12:36:27;;;;;;;6.82;3.62;;;;;;;10.39;90.31;99697.59;5609380;31;34246;-71
2024/01/05 12:39:32;;;;;;;7.75;4.20;;;;;;;10.21;91.83;99691.00;5609255;31;33853;-72
2024/01/05 12:42:35;;;;;;;7.65;4.10;;;;;;;10.22;93.40;99700.59;5609313;31;34094;-72
2024/01/05 12:45:38;;;;;;;10.05;4.60;;;;;;;10.18;94.13;99686.06;5609158;31;34000;-71
2024/01/05 12:48:41;;;;;;;12.63;4.60;;;;;;;10.16;96.62;99678.31;5609109;31;35513;-71
2024/01/05 12:51:47;;;;;;;10.00;4.80;;;;;;;10.18;96.67;99680.75;5609361;31;33325;-71
2024/01/05 12:54:51;;;;;;;10.65;5.53;;;;;;;10.23;96.58;99675.72;5609633;31;34073;-72
2024/01/05 12:58:00;;;;;;;11.80;5.28;;;;;;;10.07;97.91;99667.94;5609333;31;33818;-73
2024/01/05 13:01:04;;;;;;;13.18;5.82;;;;;;;10.06;100.00;99648.56;5609340;31;34022;-71
2024/01/05 13:04:08;;;;;;;13.25;5.62;;;;;;;10.10;99.39;99659.63;5609270;31;34127;-70
2024/01/05 13:07:13;;;;;;;12.10;5.68;;;;;;;10.02;100.00;99656.03;5609230;31;33978;-70
2024/01/05 13:10:16;;;;;;;12.68;5.60;;;;;;;9.89;100.00;99650.56;5609107;31;34728;-70
2024/01/05 13:13:19;;;;;;;10.43;5.30;;;;;;;10.01;100.00;99651.75;5609044;31;34193;-70
2024/01/05 13:16:22;;;;;;;10.25;5.15;;;;;;;9.82;99.70;99654.94;5609205;31;34693;-70
2024/01/05 13:19:25;;;;;;;14.23;5.85;;;;;;;9.87;98.40;99660.53;5609258;31;34801;-70
2024/01/05 13:22:28;;;;;;;12.25;6.00;;;;;;;9.91;99.22;99655.69;5610867;31;34698;-69
2024/01/05 13:25:40;;;;;;;12.95;6.37;;;;;;;9.77;100.00;99656.47;5609067;31;34083;-71
2024/01/05 13:28:44;;;;;;;13.05;6.68;;;;;;;9.64;100.00;99648.31;5609004;31;35015;-71
2024/01/05 13:31:47;;;;;;;15.00;7.10;;;;;;;9.40;100.00;99647.53;5609043;31;34236;-71
2024/01/05 13:34:51;;;;;;;12.68;7.10;;;;;;;9.47;100.00;99645.00;5608799;31;34970;-72
2024/01/05 13:37:55;;;;;;;14.23;7.37;;;;;;;9.43;100.00;99649.84;5608802;31;33502;-72
2024/01/05 13:41:08;;;;;;;16.62;8.32;;;;;;;9.57;100.00;99654.34;5595059;31;34747;-71
2024/01/05 13:44:11;;;;;;;18.05;8.63;;;;;;;9.66;100.00;99649.78;5607739;31;35079;-72
2024/01/05 13:47:14;;;;;;;17.12;9.15;;;;;;;9.44;100.00;99651.44;5608565;31;34082;-71
2024/01/05 13:50:17;;;;;;;19.33;9.57;;;;;;;9.25;100.00;99646.62;5608550;31;34009;-71
2024/01/05 13:53:20;;;;;;;15.48;9.35;;;;;;;9.31;100.00;99647.75;5608550;31;34083;-70
2024/01/05 13:56:26;;;;;;;18.40;8.73;;;;;;;9.24;100.00;99650.31;5608547;31;34746;-71
2024/01/05 13:59:29;;;;;;;15.80;9.40;;;;;;;9.25;100.00;99643.16;5608284;31;34301;-70
2024/01/05 14:02:33;;;;;;;17.60;10.65;;;;;;;9.19;100.00;99635.97;5608595;31;34784;-71
2024/01/05 14:05:36;;;;;;;19.25;10.45;;;;;;;9.13;100.00;99640.13;5608997;31;34276;-71
2024/01/05 14:08:39;;;;;;;18.50;10.20;;;;;;;9.04;100.00;99627.97;5607773;31;34072;-72
2024/01/05 14:11:45;;;;;;;21.87;11.38;;;;;;;9.02;100.00;99624.66;5607706;31;34053;-72
2024/01/05 14:14:51;;;;;;;21.05;12.20;;;;;;;8.84;100.00;99626.78;5607585;31;34075;-72
2024/01/05 14:17:55;;;;;;;22.58;11.77;;;;;;;8.80;100.00;99625.47;5607835;31;34950;-71
2024/01/05 14:20:59;;;;;;;24.17;11.57;;;;;;;8.74;100.00;99624.34;5608429;31;34216;-71
2024/01/05 14:24:02;;;;;;;22.20;11.38;;;;;;;8.76;100.00;99629.47;5608255;31;34039;-72